createdAt,value
2022-12-25T14:38:25.516Z,76302.50
2022-12-25T14:41:01.366Z,76302.50
2022-12-25T14:43:30.436Z,76302.50
2022-12-25T14:46:00.976Z,76302.50
2022-12-25T14:48:30.614Z,76308.59
2022-12-25T14:51:01.647Z,76314.72
2022-12-25T14:53:37.202Z,76326.97
2022-12-25T14:56:05.940Z,76333.06
2022-12-25T14:58:38.573Z,76333.06
2022-12-25T15:01:06.775Z,76339.19
2022-12-25T15:03:37.883Z,76349.38
2022-12-25T15:06:07.495Z,76359.59
2022-12-25T15:08:36.788Z,76361.63
2022-12-25T15:11:05.730Z,76365.69
2022-12-25T15:13:34.290Z,76373.84
2022-12-25T15:16:07.376Z,76377.94
2022-12-25T15:18:39.415Z,76388.13
2022-12-25T15:21:08.048Z,76392.22
2022-12-25T15:23:37.377Z,76394.25
2022-12-25T15:26:05.622Z,76406.47
2022-12-25T15:28:33.406Z,76412.59
2022-12-25T15:31:01.373Z,76408.53
2022-12-25T15:33:29.248Z,76412.59
2022-12-25T15:35:57.059Z,76424.84
2022-12-25T15:38:25.102Z,76435.03
2022-12-25T15:40:54.300Z,76449.28
2022-12-25T15:43:39.807Z,76459.50
2022-12-25T15:46:10.005Z,76461.53
2022-12-25T15:48:37.846Z,76459.50
2022-12-25T15:51:05.829Z,76465.63
2022-12-25T15:53:34.806Z,76463.56
2022-12-25T15:56:03.972Z,76467.66
2022-12-25T15:58:31.789Z,76469.69
2022-12-25T16:00:59.631Z,76477.84
2022-12-25T16:03:27.467Z,76475.81
2022-12-25T16:05:55.819Z,76488.03
2022-12-25T16:08:23.773Z,76490.06
2022-12-25T16:10:51.629Z,76490.06
2022-12-25T16:13:20.780Z,76500.28
2022-12-25T16:15:48.651Z,76512.50
2022-12-25T16:18:16.580Z,76506.38
2022-12-25T16:20:44.481Z,76506.38
2022-12-25T16:23:12.385Z,76528.81
2022-12-25T16:25:40.292Z,76541.06
2022-12-25T16:28:10.309Z,76530.84
2022-12-25T16:30:41.010Z,76547.16
2022-12-25T16:33:08.887Z,76553.28
2022-12-25T16:35:36.711Z,76559.41
2022-12-25T16:38:04.629Z,76571.63
2022-12-25T16:40:33.107Z,76571.63
2022-12-25T16:43:01.114Z,76575.72
2022-12-25T16:45:29.321Z,76583.88
2022-12-25T16:47:58.633Z,76598.16
2022-12-25T16:50:26.406Z,76604.28
2022-12-25T16:52:54.271Z,76608.34
2022-12-25T16:55:27.786Z,76612.41
2022-12-25T16:57:58.052Z,76608.34
2022-12-25T17:00:26.100Z,76620.56
2022-12-25T17:02:54.387Z,76622.63
2022-12-25T17:05:24.241Z,76620.56
2022-12-25T17:07:52.136Z,76632.81
2022-12-25T17:10:21.405Z,76640.97
2022-12-25T17:12:49.574Z,76634.84
2022-12-25T17:15:17.453Z,76640.97
2022-12-25T17:17:45.243Z,76645.03
2022-12-25T17:20:13.739Z,76655.25
2022-12-25T17:22:42.903Z,76653.19
2022-12-25T17:25:10.945Z,76679.72
2022-12-25T17:27:38.816Z,76669.53
2022-12-25T17:30:08.121Z,76681.75
2022-12-25T17:32:36.039Z,76673.59
2022-12-25T17:35:04.017Z,76689.91
2022-12-25T17:37:32.427Z,76691.94
2022-12-25T17:40:01.657Z,76702.16
2022-12-25T17:42:29.731Z,76702.16
2022-12-25T17:44:57.750Z,76708.25
2022-12-25T17:47:26.147Z,76708.25
2022-12-25T17:49:53.990Z,76696.03
2022-12-25T17:52:21.816Z,76696.03
2022-12-25T17:54:49.647Z,76706.22
2022-12-25T17:57:18.939Z,76712.34
2022-12-25T17:59:46.745Z,76722.53
2022-12-25T18:02:14.872Z,76732.72
2022-12-25T18:04:42.783Z,76736.81
2022-12-25T18:07:10.603Z,76724.56
2022-12-25T18:09:38.382Z,76718.47
2022-12-25T18:12:07.103Z,76730.69
2022-12-25T18:14:36.258Z,76734.78
2022-12-25T18:17:04.047Z,76722.53
2022-12-25T18:19:34.286Z,76722.53
2022-12-25T18:22:02.085Z,76747.00
2022-12-25T18:24:29.865Z,76738.84
2022-12-25T18:26:57.792Z,76740.88
2022-12-25T18:29:25.576Z,76751.09
2022-12-25T18:31:55.537Z,76753.13
2022-12-25T18:34:23.497Z,76742.94
2022-12-25T18:36:51.306Z,76742.94
2022-12-25T18:39:19.171Z,76744.97
2022-12-25T18:42:04.369Z,76757.19
2022-12-25T18:44:32.134Z,76757.19
2022-12-25T18:47:01.371Z,76767.41
2022-12-25T18:49:29.256Z,76767.41
2022-12-25T18:52:50.229Z,76767.41
2022-12-25T18:54:45.152Z,76771.47
2022-12-25T18:57:12.963Z,76763.31
2022-12-25T18:59:41.874Z,76767.41
2022-12-25T19:02:13.154Z,76775.56
2022-12-25T19:04:43.455Z,76771.47
2022-12-25T19:07:11.664Z,76779.63
2022-12-25T19:09:39.430Z,76787.78
2022-12-25T19:12:07.827Z,76791.88
2022-12-25T19:14:47.628Z,76789.81
2022-12-25T19:17:18.065Z,76793.91
2022-12-25T19:19:46.306Z,76804.09
2022-12-25T19:22:14.170Z,76795.94
2022-12-25T19:24:42.098Z,76783.72
2022-12-25T19:27:10.081Z,76771.47
2022-12-25T19:29:37.885Z,76789.81
2022-12-25T19:32:06.149Z,76802.06
2022-12-25T19:34:35.644Z,76804.09
2022-12-25T19:37:04.311Z,76804.09
2022-12-25T19:39:32.116Z,76806.13
2022-12-25T19:41:59.919Z,76808.19
2022-12-25T19:44:27.700Z,76814.31
2022-12-25T19:46:55.836Z,76812.25
2022-12-25T19:49:23.791Z,76804.09
2022-12-25T19:51:53.050Z,76816.34
2022-12-25T19:54:21.260Z,76814.31
2022-12-25T19:56:50.109Z,76814.31
2022-12-25T19:59:17.986Z,76818.38
2022-12-25T20:01:46.138Z,76824.50
2022-12-25T20:04:14.155Z,76820.41
2022-12-25T20:06:42.643Z,76822.47
2022-12-25T20:09:14.901Z,76812.25
2022-12-25T20:11:43.471Z,76812.25
2022-12-25T20:14:12.936Z,76828.56
2022-12-25T20:16:41.546Z,76844.88
2022-12-25T20:19:10.902Z,76853.03
2022-12-25T20:21:38.865Z,76857.13
2022-12-25T20:24:09.231Z,76861.19
2022-12-25T20:26:39.645Z,76867.31
2022-12-25T20:29:07.971Z,76857.13
2022-12-25T20:31:36.572Z,76873.44
2022-12-25T20:34:07.419Z,76883.63
2022-12-25T20:36:37.777Z,76881.59
2022-12-25T20:39:09.422Z,76887.72
2022-12-25T20:41:39.590Z,76899.94
2022-12-25T20:44:10.297Z,76897.91
2022-12-25T20:46:38.373Z,76914.22
2022-12-25T20:49:06.867Z,76899.94
2022-12-25T20:51:34.721Z,76891.78
2022-12-25T20:54:08.018Z,76889.75
2022-12-25T20:56:36.963Z,76897.91
2022-12-25T20:59:06.206Z,76901.97
2022-12-25T21:01:34.080Z,76885.66
2022-12-25T21:04:02.411Z,76889.75
2022-12-25T21:06:30.402Z,76906.06
2022-12-25T21:08:58.241Z,76901.97
2022-12-25T21:11:26.112Z,76897.91
2022-12-25T21:13:54.073Z,76877.50
2022-12-25T21:16:23.606Z,76885.66
2022-12-25T21:18:53.917Z,76893.81
2022-12-25T21:21:22.792Z,76910.16
2022-12-25T21:23:51.208Z,76922.38
2022-12-25T21:26:21.125Z,76934.63
2022-12-25T21:28:50.431Z,76940.72
2022-12-25T21:31:19.222Z,76944.81
2022-12-25T21:33:53.703Z,76959.09
2022-12-25T21:36:25.003Z,76955.00
2022-12-25T21:38:55.213Z,76959.09
2022-12-25T21:41:23.294Z,76969.28
2022-12-25T21:43:51.601Z,76971.31
2022-12-25T21:46:19.923Z,76971.31
2022-12-25T21:48:49.639Z,76981.53
2022-12-25T21:51:36.179Z,76993.75
2022-12-25T21:54:04.604Z,76985.59
2022-12-25T21:56:37.094Z,76991.72
2022-12-25T21:59:10.131Z,76995.78
2022-12-25T22:01:39.141Z,76997.84
2022-12-25T22:04:11.185Z,77008.03
2022-12-25T22:06:56.835Z,76995.78
2022-12-25T22:09:24.866Z,77010.06
2022-12-25T22:12:10.321Z,77008.03
2022-12-25T22:14:56.611Z,76995.78
2022-12-25T22:17:44.245Z,76997.84
2022-12-25T22:20:15.075Z,76985.59
2022-12-25T22:22:43.248Z,76987.63
2022-12-25T22:25:11.975Z,76995.78
2022-12-25T22:27:41.298Z,76999.88
2022-12-25T22:30:11.231Z,76999.88
2022-12-25T22:32:39.451Z,77008.03
2022-12-25T22:35:07.889Z,77014.16
2022-12-25T22:37:37.245Z,77012.09
2022-12-25T22:40:06.484Z,77008.03
2022-12-25T22:42:34.858Z,77016.19
2022-12-25T22:45:02.776Z,77016.19
2022-12-25T22:47:30.566Z,77003.94
2022-12-25T22:49:58.353Z,76995.78
2022-12-25T22:52:26.346Z,77006.00
2022-12-25T22:54:55.506Z,77003.94
2022-12-25T22:57:23.400Z,77008.03
2022-12-25T22:59:52.714Z,77012.09
2022-12-25T23:02:20.964Z,77020.25
2022-12-25T23:04:49.293Z,77028.41
2022-12-25T23:07:17.223Z,77028.41
2022-12-25T23:09:45.739Z,77044.75
2022-12-25T23:12:28.828Z,77036.59
2022-12-25T23:14:57.205Z,77036.59
2022-12-25T23:17:42.809Z,77028.41
2022-12-25T23:20:31.184Z,77024.34
2022-12-25T23:23:16.366Z,77020.25
2022-12-25T23:26:01.689Z,77016.19
2022-12-25T23:28:47.984Z,77012.09
2022-12-25T23:31:15.976Z,77014.16
2022-12-25T23:33:43.982Z,77022.31
2022-12-25T23:36:11.846Z,77018.22
2022-12-25T23:38:39.719Z,77032.50
2022-12-25T23:41:08.723Z,77040.66
2022-12-25T23:43:37.877Z,77050.84
2022-12-25T23:46:05.896Z,77044.75
2022-12-25T23:48:33.762Z,77046.78
2022-12-25T23:51:04.220Z,77030.47
2022-12-25T23:53:32.102Z,77012.09
2022-12-25T23:56:00.213Z,77016.19
2022-12-25T23:58:29.869Z,77012.09
